Impacts METAR Board
IDs:

KPIT - Pittsburgh Intl, PA, US

Updated at: 1400 UTC 10 Aug 2022
Potential Impact None Slight Moderate High
Time 10/02Z 10/03Z 10/04Z 10/05Z 10/06Z 10/07Z 10/08Z 10/09Z 10/10Z 10/11Z 10/12Z 10/13Z 10/14Z
Temp72 72 71 70 70 69 69 68 68 68 68 69 70
Dewpt65 65 65 64 62 61 61 60 60 61 61 61 61
Altim30.08 30.08 30.09 30.10 30.10 30.10 30.10 30.11 30.12 30.13 30.14 30.14 30.15
VIS10 10 10 10 10 10 10 10 10 10 10 10 10
CIG21 25 27 25 23 25 25 36 35 33 33 22 22
CoverOVCOVCOVCOVCOVCOVCOVCOVCOVCOVCBKNOVCOVC
FltCatMVFRMVFRMVFRMVFRMVFRMVFRMVFRVFRVFRVFRVFRMVFRMVFR
WX--------------------------
WDir360330360360103304000303060360
WSpd6 6 6 6 4 5 4 3 0 4 5 3 5
WGst-- -- -- -- -- -- -- -- -- -- -- -- --
Raw hourly METARs
KPIT 100151Z 36006KT 10SM FEW014 OVC021 22/18 A3008 RMK AO2 SLP185 T02220183
KPIT 100251Z 33006KT 10SM FEW015 OVC025 22/18 A3008 RMK AO2 SLP185 T02220183 51010
KPIT 100351Z 36006KT 10SM OVC027 22/18 A3009 RMK AO2 SLP190 T02170183
KPIT 100451Z 36006KT 10SM OVC025 21/18 A3010 RMK AO2 SLP194 T02110178 402500211
KPIT 100551Z 01004KT 10SM OVC023 21/17 A3010 RMK AO2 SLP194 T02110167 10228 20211 51008
KPIT 100651Z 33005KT 10SM OVC025 21/16 A3010 RMK AO2 SLP194 T02060161
KPIT 100751Z 04004KT 10SM BKN025 OVC036 21/16 A3010 RMK AO2 SLP192 T02060161
KPIT 100851Z VRB03KT 10SM FEW025 OVC036 20/16 A3011 RMK AO2 SLP195 BINOVC T02000156 53002
KPIT 100951Z 00000KT 10SM SCT028 OVC035 20/16 A3012 RMK AO2 SLP198 T02000156
KPIT 101051Z 03004KT 10SM OVC033 20/16 A3013 RMK AO2 SLP203 T02000161
KPIT 101151Z 03005KT 10SM FEW022 BKN033 BKN065 20/16 A3014 RMK AO2 SLP206 T02000161 10211 20200 52010
KPIT 101251Z 06003KT 10SM OVC022 21/16 A3014 RMK AO2 SLP208 T02060161
KPIT 101351Z 36005KT 10SM OVC022 21/16 A3015 RMK AO2 SLP208 T02110161



Page loaded:  14:19 UTC  |   07:19 AM Pacific  |   08:19 AM Mountain  |   09:19 AM Central  |   10:19 AM Eastern

 

ADVISORIES

FORECASTS

FORECASTS

OBSERVATIONS

USER TOOLS

ABOUT US